Latest Weather Observations for Butlers Gorge

IDT60801

Issued at 3:01 pm EST Monday 30 May 2016 (issued every 30 minutes, with the page automatically refreshed every 10 minutes)

About weather observations | Map of weather stations | Latest weather observations for TAS | Other Formats
Station Details ID: 096003 Name: BUTLERS GORGE Lat: -42.28 Lon: 146.28 Height: 667.0 m
Data from the previous 72 hours. | See also: Recent months at Butlers Gorge
Date/Time
EST
Temp
°C
App
Temp
°C
Dew
Point
Rel
Hum
%
Delta-T
°C
Wind Press
QNH
hPa
Press
MSL
hPa
Rain
since 9 am
mm
Dir
 
Spd
km/h
Gust
km/h
Spd
kts
Gust
kts
30/03:00pm 7.7 5.4 2.8 71 2.1 NW 4 6 2 3 - - 0.0
30/02:30pm 7.1 3.9 3.0 75 1.8 NW 9 13 5 7 - - 0.0
30/02:00pm 7.6 4.9 2.9 72 2.1 N 6 9 3 5 - - 0.0
30/01:30pm 6.7 4.4 2.6 75 1.8 WNW 4 9 2 5 - - 0.0
30/01:00pm 6.3 3.1 2.8 78 1.5 NW 9 13 5 7 - - 0.0
30/12:30pm 5.8 2.8 2.1 77 1.6 NNW 7 11 4 6 - - 0.0
30/12:00pm 5.4 2.4 2.1 79 1.4 NW 7 11 4 6 - - 0.0
30/11:30am 4.4 1.3 1.1 79 1.3 N 7 9 4 5 - - 0.0
30/11:00am 3.7 1.6 1.9 88 0.7 ENE 2 7 1 4 - - 0.0
30/10:30am 3.1 0.3 2.2 94 0.4 NW 6 7 3 4 - - 0.0
30/10:00am 1.7 -1.3 1.0 95 0.3 WSW 6 7 3 4 - - 0.0
30/09:30am 1.2 -1.1 0.5 95 0.3 WSW 2 7 1 4 - - 0.0
30/09:00am 0.7 -1.3 0.1 96 0.2 CALM 0 0 0 0 - - 0.8
30/08:30am -0.3 -2.4 -0.9 96 0.2 CALM 0 0 0 0 - - 0.6
30/08:00am -0.4 -2.5 -1.1 95 0.2 CALM 0 0 0 0 - - 0.6
30/07:30am 0.1 -2.0 -0.6 95 0.3 CALM 0 0 0 0 - - 0.6
30/07:00am 0.4 -1.6 -0.2 96 0.2 CALM 0 0 0 0 - - 0.6
30/06:30am 0.2 -1.8 -0.4 96 0.2 CALM 0 0 0 0 - - 0.6
30/06:00am -0.2 -2.3 -0.9 95 0.2 CALM 0 0 0 0 - - 0.6
30/05:30am 0.1 -2.0 -0.6 95 0.3 CALM 0 0 0 0 - - 0.6
30/05:00am 0.8 -1.2 0.1 95 0.3 CALM 0 0 0 0 - - 0.6
30/04:30am 1.0 -0.9 0.3 95 0.3 CALM 0 0 0 0 - - 0.6
30/04:00am 1.4 -0.5 0.7 95 0.3 CALM 0 0 0 0 - - 0.4
30/03:30am 1.7 -0.1 1.1 96 0.2 CALM 0 0 0 0 - - 0.4
30/03:00am 1.8 0.0 1.2 96 0.2 CALM 0 0 0 0 - - 0.4
30/02:30am 1.6 -0.2 0.9 95 0.3 CALM 0 0 0 0 - - 0.4
30/02:00am 1.6 -0.2 1.0 96 0.2 CALM 0 0 0 0 - - 0.4
30/01:30am 1.3 -0.6 0.6 95 0.3 CALM 0 0 0 0 - - 0.4
30/01:00am 1.1 -0.8 0.4 95 0.3 CALM 0 0 0 0 - - 0.4
30/12:30am 0.9 -1.1 0.2 95 0.3 CALM 0 0 0 0 - - 0.4
30/12:00am 1.5 -0.4 0.8 95 0.3 CALM 0 0 0 0 - - 0.4
 
Date/Time
EST
Temp
°C
App
Temp
°C
Dew
Point
Rel
Hum
%
Delta-T
°C
Wind Press
QNH
hPa
Press
MSL
hPa
Rain
since 9 am
mm
Dir
 
Spd
km/h
Gust
km/h
Spd
kts
Gust
kts
29/11:30pm 1.9 0.1 1.2 95 0.3 CALM 0 0 0 0 - - 0.4
29/11:00pm 1.8 0.0 1.1 95 0.3 CALM 0 0 0 0 - - 0.4
29/10:30pm 2.9 1.3 2.2 95 0.3 CALM 0 0 0 0 - - 0.4
29/10:00pm 3.2 1.6 2.5 95 0.3 CALM 0 0 0 0 - - 0.4
29/09:30pm 3.0 1.4 2.3 95 0.3 CALM 0 0 0 0 - - 0.4
29/09:00pm 3.6 2.1 2.9 95 0.3 CALM 0 0 0 0 - - 0.4
29/08:30pm 3.9 2.1 3.2 95 0.3 W 2 7 1 4 - - 0.4
29/08:00pm 3.8 1.6 3.1 95 0.3 NNE 4 7 2 4 - - 0.2
29/07:30pm 4.2 2.4 3.3 94 0.4 WSW 2 7 1 4 - - 0.2
29/07:00pm 4.0 2.5 3.1 94 0.4 CALM 0 0 0 0 - - 0.2
29/06:30pm 4.4 3.0 3.5 94 0.4 CALM 0 0 0 0 - - 0.2
29/06:00pm 4.5 3.1 3.5 93 0.4 CALM 0 0 0 0 - - 0.2
29/05:30pm 4.6 3.2 3.3 91 0.6 CALM 0 0 0 0 - - 0.2
29/05:00pm 5.7 3.2 4.0 89 0.8 SSW 6 11 3 6 - - 0.2
29/04:30pm 5.9 3.4 3.7 86 1.0 WSW 6 9 3 5 - - 0.2
29/04:00pm 6.6 3.2 4.1 84 1.1 SW 11 17 6 9 - - 0.0
29/03:30pm 7.1 4.2 4.8 85 1.0 WSW 9 15 5 8 - - 0.0
29/03:00pm 7.9 5.6 5.0 82 1.3 W 6 11 3 6 - - 0.0
29/02:30pm 6.9 4.0 4.7 86 1.0 SW 9 17 5 9 - - 0.0
29/02:00pm 7.8 5.2 4.4 79 1.5 SE 7 15 4 8 - - 0.0
29/01:30pm 7.4 4.3 3.6 77 1.7 WSW 9 17 5 9 - - 0.0
29/01:00pm 7.4 4.8 4.2 80 1.4 NNE 7 9 4 5 - - 0.0
29/12:30pm 7.2 4.6 4.0 80 1.4 NNE 7 11 4 6 - - 0.0
29/12:00pm 6.9 4.2 3.9 81 1.3 NE 7 9 4 5 - - 0.0
29/11:30am 6.8 3.8 4.1 83 1.2 W 9 17 5 9 - - 0.0
29/11:00am 6.5 3.8 3.7 82 1.2 ESE 7 13 4 7 - - 0.0
29/10:30am 6.2 4.1 3.9 85 1.0 NW 4 7 2 4 - - 0.0
29/10:00am 5.9 4.1 3.4 84 1.1 WNW 2 6 1 3 - - 0.0
29/09:30am 5.5 3.4 3.7 88 0.8 SW 4 11 2 6 - - 0.0
29/09:00am 5.1 2.6 3.6 90 0.7 N 6 7 3 4 - - 0.6
29/08:30am 4.8 2.3 3.5 91 0.6 WSW 6 11 3 6 - - 0.6
29/08:00am 4.7 3.3 3.5 92 0.5 CALM 0 0 0 0 - - 0.6
29/07:30am 4.7 1.6 3.5 92 0.5 WSW 9 15 5 8 - - 0.6
29/07:00am 4.6 1.5 3.4 92 0.5 W 9 15 5 8 - - 0.6
29/06:30am 4.1 2.6 3.1 93 0.4 CALM 0 6 0 3 - - 0.6
29/06:00am 3.7 2.1 2.7 93 0.4 CALM 0 6 0 3 - - 0.6
29/05:30am 4.3 2.4 3.1 92 0.5 WSW 2 7 1 4 - - 0.6
29/05:00am 4.1 2.2 2.8 91 0.5 W 2 7 1 4 - - 0.4
29/04:30am 4.1 1.3 2.9 92 0.5 WNW 7 11 4 6 - - 0.4
29/04:00am 4.0 1.2 3.1 94 0.4 W 7 15 4 8 - - 0.4
29/03:30am 3.2 1.6 2.3 94 0.4 CALM 0 0 0 0 - - 0.4
29/03:00am 3.3 0.9 2.3 93 0.4 W 4 7 2 4 - - 0.4
29/02:30am 3.7 0.8 2.8 94 0.4 NW 7 13 4 7 - - 0.4
29/02:00am 3.4 1.1 2.5 94 0.4 ESE 4 7 2 4 - - 0.4
29/01:30am 3.8 1.6 3.1 95 0.3 NW 4 7 2 4 - - 0.4
29/01:00am 4.2 1.7 3.6 96 0.3 WNW 6 9 3 5 - - 0.4
29/12:30am 3.3 1.4 2.7 96 0.3 WNW 2 9 1 5 - - 0.4
29/12:00am 3.0 1.4 2.3 95 0.3 CALM 0 6 0 3 - - 0.4
 
Date/Time
EST
Temp
°C
App
Temp
°C
Dew
Point
Rel
Hum
%
Delta-T
°C
Wind Press
QNH
hPa
Press
MSL
hPa
Rain
since 9 am
mm
Dir
 
Spd
km/h
Gust
km/h
Spd
kts
Gust
kts
28/11:30pm 3.0 1.4 2.3 95 0.3 CALM 0 0 0 0 - - 0.4
28/11:00pm 3.2 1.2 2.5 95 0.3 SW 2 6 1 3 - - 0.4
28/10:30pm 3.2 1.2 2.5 95 0.3 SW 2 6 1 3 - - 0.4
28/10:00pm 3.4 0.7 2.7 95 0.3 NW 6 7 3 4 - - 0.2
28/09:30pm 3.2 1.2 2.5 95 0.3 E 2 6 1 3 - - 0.2
28/09:00pm 2.8 0.0 1.9 94 0.4 NW 6 9 3 5 - - 0.2
28/08:30pm 3.8 2.3 2.9 94 0.4 CALM 0 0 0 0 - - 0.2
28/08:00pm 3.5 1.2 2.6 94 0.4 WSW 4 7 2 4 - - 0.2
28/07:30pm 3.0 0.9 2.0 93 0.4 ENE 2 6 1 3 - - 0.2
28/07:00pm 3.3 0.5 1.8 90 0.6 NNE 6 6 3 3 - - 0.2
28/06:30pm 4.5 1.8 2.7 88 0.8 WSW 6 17 3 9 - - 0.2
28/06:00pm 3.9 1.2 2.6 91 0.5 W 6 9 3 5 - - 0.2
28/05:30pm 4.5 2.3 3.3 92 0.5 W 4 7 2 4 - - 0.2
28/05:00pm 5.1 3.7 3.8 91 0.6 CALM 0 0 0 0 - - 0.2
28/04:30pm 5.3 3.9 3.6 89 0.7 CALM 0 6 0 3 - - 0.2
28/04:00pm 5.4 2.7 3.6 88 0.8 W 7 11 4 6 - - 0.2
28/03:30pm 5.6 2.5 3.4 86 1.0 WNW 9 15 5 8 - - 0.2
28/03:00pm 5.9 3.3 4.1 88 0.8 W 7 11 4 6 - - 0.0
28/02:30pm 6.3 3.2 3.6 83 1.2 NW 9 15 5 8 - - 0.0
28/02:00pm 6.4 3.6 3.0 79 1.5 WNW 7 15 4 8 - - 0.0
28/01:30pm 6.2 2.6 2.8 79 1.5 WNW 11 17 6 9 - - 0.0
28/01:00pm 6.6 3.0 3.0 78 1.6 NW 11 17 6 9 - - 0.0
28/12:30pm 6.4 3.1 2.7 77 1.6 WNW 9 13 5 7 - - 0.0
28/12:00pm 6.1 3.7 2.0 75 1.7 W 4 9 2 5 - - 0.0
28/11:30am 5.9 2.1 1.8 75 1.7 WSW 11 19 6 10 - - 0.0
28/11:00am 6.5 2.8 2.6 76 1.7 NW 11 19 6 10 - - 0.0
28/10:30am 5.3 1.6 2.3 81 1.3 NW 11 17 6 9 - - 0.0
28/10:00am 4.9 1.6 2.3 83 1.1 NNW 9 13 5 7 - - 0.0
28/09:30am 4.8 2.3 3.6 92 0.5 WNW 6 13 3 7 - - 0.0
28/09:00am 3.5 0.7 2.9 96 0.3 WNW 7 17 4 9 - - 0.2
28/08:30am 1.2 -0.7 0.6 96 0.2 CALM 0 0 0 0 - - 0.2
28/08:00am 0.7 -1.3 0.1 96 0.2 CALM 0 0 0 0 - - 0.2
28/07:30am 0.5 -1.5 -0.1 96 0.2 CALM 0 0 0 0 - - 0.2
28/07:00am 0.2 -1.9 -0.5 95 0.3 CALM 0 0 0 0 - - 0.2
28/06:30am 0.6 -1.4 -0.1 95 0.3 CALM 0 0 0 0 - - 0.2
28/06:00am 0.4 -1.6 -0.3 95 0.3 CALM 0 0 0 0 - - 0.2
28/05:30am 0.6 -1.4 -0.1 95 0.3 CALM 0 0 0 0 - - 0.2
28/05:00am 0.5 -1.5 -0.2 95 0.3 CALM 0 0 0 0 - - 0.2
28/04:30am 0.2 -1.9 -0.5 95 0.3 CALM 0 0 0 0 - - 0.2
28/04:00am -0.2 -2.3 -0.9 95 0.2 CALM 0 0 0 0 - - 0.2
28/03:30am -0.6 -2.8 -1.3 95 0.2 CALM 0 0 0 0 - - 0.2
28/03:00am 0.0 -2.1 -0.7 95 0.3 CALM 0 0 0 0 - - 0.2
28/02:30am 0.4 -1.6 -0.3 95 0.3 CALM 0 0 0 0 - - 0.2
28/02:00am 0.2 -1.9 -0.5 95 0.3 CALM 0 0 0 0 - - 0.2
28/01:30am 0.1 -2.0 -0.6 95 0.3 CALM 0 0 0 0 - - 0.2
28/01:00am 0.0 -2.1 -0.7 95 0.3 CALM 0 0 0 0 - - 0.2
28/12:30am -0.2 -2.3 -1.0 94 0.3 CALM 0 0 0 0 - - 0.2
28/12:00am -0.4 -2.6 -1.2 94 0.3 CALM 0 0 0 0 - - 0.2
 
Date/Time
EST
Temp
°C
App
Temp
°C
Dew
Point
Rel
Hum
%
Delta-T
°C
Wind Press
QNH
hPa
Press
MSL
hPa
Rain
since 9 am
mm
Dir
 
Spd
km/h
Gust
km/h
Spd
kts
Gust
kts
27/11:30pm 0.0 -2.1 -0.8 94 0.3 CALM 0 0 0 0 - - 0.2
27/11:00pm 0.4 -1.7 -0.5 94 0.3 CALM 0 0 0 0 - - 0.2
27/10:30pm 0.8 -2.0 -0.2 93 0.4 WSW 4 9 2 5 - - 0.2
27/10:00pm 1.5 -0.4 0.3 92 0.5 CALM 0 4 0 2 - - 0.2
27/09:30pm 2.6 -0.4 1.1 90 0.6 W 6 11 3 6 - - 0.2
27/09:00pm 3.6 0.9 2.4 92 0.5 W 6 7 3 4 - - 0.2
27/08:30pm 3.5 0.8 2.6 94 0.4 WSW 6 9 3 5 - - 0.2
27/08:00pm 3.2 1.6 2.3 94 0.4 CALM 0 0 0 0 - - 0.2
27/07:30pm 3.5 1.2 2.5 93 0.4 WSW 4 9 2 5 - - 0.2
27/07:00pm 3.4 1.8 2.2 92 0.5 CALM 0 0 0 0 - - 0.2
27/06:30pm 4.3 2.4 3.0 91 0.6 SW 2 7 1 4 - - 0.2
27/06:00pm 4.0 2.1 2.8 92 0.5 W 2 7 1 4 - - 0.2
27/05:30pm 4.7 3.2 3.2 90 0.6 CALM 0 0 0 0 - - 0.2
27/05:00pm 5.2 3.8 3.5 89 0.7 CALM 0 0 0 0 - - 0.2
27/04:30pm 5.6 4.1 3.1 84 1.1 CALM 0 0 0 0 - - 0.2
27/04:00pm 5.7 3.1 3.2 84 1.1 SSW 6 7 3 4 - - 0.2
27/03:30pm 6.3 3.6 2.9 79 1.5 SW 6 9 3 5 - - 0.2

Other Formats:

Comma delimited format used in spreadsheet applications
http://www.bom.gov.au/fwo/IDT60801/IDT60801.94959.axf

JavaScript Object Notation format (JSON) in row-major order
http://www.bom.gov.au/fwo/IDT60801/IDT60801.94959.json